createdAt,value
2023-04-22T00:01:02.414Z,6.69
2023-04-22T00:03:29.952Z,6.74
2023-04-22T00:05:57.774Z,6.82
2023-04-22T00:08:25.652Z,6.95
2023-04-22T00:10:53.000Z,7.01
2023-04-22T00:13:20.231Z,6.97
2023-04-22T00:15:47.678Z,6.85
2023-04-22T00:18:15.359Z,6.84
2023-04-22T00:20:44.279Z,6.81
2023-04-22T00:23:12.778Z,6.82
2023-04-22T00:25:40.852Z,6.86
2023-04-22T00:28:08.201Z,6.84
2023-04-22T00:30:36.295Z,6.88
2023-04-22T00:33:03.898Z,6.92
2023-04-22T00:35:31.160Z,6.89
2023-04-22T00:37:58.466Z,6.75
2023-04-22T00:40:25.654Z,6.70
2023-04-22T00:42:53.552Z,6.70
2023-04-22T00:45:21.429Z,6.78
2023-04-22T00:47:49.272Z,6.93
2023-04-22T00:50:17.034Z,6.95
2023-04-22T00:52:44.563Z,6.92
2023-04-22T00:55:12.372Z,6.79
2023-04-22T00:57:40.667Z,6.77
2023-04-22T01:00:10.221Z,6.70
2023-04-22T01:02:38.939Z,6.77
2023-04-22T01:05:10.798Z,6.85
2023-04-22T01:07:38.200Z,7.01
2023-04-22T01:10:07.507Z,6.95
2023-04-22T01:12:34.997Z,6.81
2023-04-22T01:15:05.076Z,6.65
2023-04-22T01:17:33.965Z,6.62
2023-04-22T01:20:04.064Z,6.58
2023-04-22T01:22:40.639Z,6.63
2023-04-22T01:25:10.464Z,6.61
2023-04-22T01:27:39.676Z,6.66
2023-04-22T01:30:08.550Z,6.57
2023-04-22T01:32:36.337Z,6.51
2023-04-22T01:35:04.060Z,6.66
2023-04-22T01:37:31.372Z,6.57
2023-04-22T01:39:59.402Z,6.61
2023-04-22T01:42:27.082Z,6.51
2023-04-22T01:44:54.749Z,6.49
2023-04-22T01:47:22.031Z,6.48
2023-04-22T01:49:49.402Z,6.48
2023-04-22T01:52:17.931Z,6.48
2023-04-22T01:54:45.327Z,6.49
2023-04-22T01:57:14.462Z,6.47
2023-04-22T01:59:42.092Z,6.40
2023-04-22T02:02:09.785Z,6.44
2023-04-22T02:04:37.207Z,6.37
2023-04-22T02:07:04.549Z,6.25
2023-04-22T02:09:35.727Z,6.13
2023-04-22T02:12:02.990Z,6.13
2023-04-22T02:14:30.196Z,6.04
2023-04-22T02:17:03.399Z,6.07
2023-04-22T02:19:30.837Z,6.05
2023-04-22T02:21:58.580Z,6.14
2023-04-22T02:24:25.852Z,6.09
2023-04-22T02:26:53.236Z,6.00
2023-04-22T02:29:20.708Z,5.92
2023-04-22T02:31:48.068Z,5.94
2023-04-22T02:34:15.487Z,6.04
2023-04-22T02:36:42.639Z,5.98
2023-04-22T02:39:10.584Z,5.97
2023-04-22T02:41:38.405Z,5.92
2023-04-22T02:44:06.567Z,5.85
2023-04-22T02:46:34.797Z,5.97
2023-04-22T02:49:02.153Z,5.87
2023-04-22T02:51:29.550Z,5.90
2023-04-22T02:53:56.845Z,5.96
2023-04-22T02:56:24.172Z,5.92
2023-04-22T02:58:51.333Z,5.90
2023-04-22T03:01:18.713Z,5.83
2023-04-22T03:03:46.781Z,5.73
2023-04-22T03:06:20.042Z,5.76
2023-04-22T03:08:48.831Z,5.72
2023-04-22T03:11:16.131Z,5.79
2023-04-22T03:13:43.424Z,5.63
2023-04-22T03:16:10.852Z,5.50
2023-04-22T03:18:39.084Z,5.52
2023-04-22T03:21:07.376Z,5.53
2023-04-22T03:23:34.851Z,5.61
2023-04-22T03:26:02.180Z,5.64
2023-04-22T03:28:29.479Z,5.61
2023-04-22T03:30:56.702Z,5.55
2023-04-22T03:33:24.160Z,5.44
2023-04-22T03:35:56.245Z,5.40
2023-04-22T03:38:24.495Z,5.34
2023-04-22T03:40:52.332Z,5.23
2023-04-22T03:43:34.688Z,5.09
2023-04-22T03:46:07.651Z,5.08
2023-04-22T03:48:37.841Z,5.13
2023-04-22T03:51:10.504Z,5.22
2023-04-22T03:53:40.494Z,5.27
2023-04-22T03:56:09.084Z,5.23
2023-04-22T03:58:40.240Z,5.24
2023-04-22T04:01:09.104Z,5.39
2023-04-22T04:03:37.258Z,5.45
2023-04-22T04:06:05.850Z,5.54
2023-04-22T04:08:33.172Z,5.56
2023-04-22T04:11:01.094Z,5.64
2023-04-22T04:13:32.493Z,5.74
2023-04-22T04:16:19.453Z,5.76
2023-04-22T04:18:52.567Z,5.96
2023-04-22T04:21:22.210Z,6.26
2023-04-22T04:23:52.475Z,6.50
2023-04-22T04:26:25.242Z,6.65
2023-04-22T04:28:57.549Z,6.83
2023-04-22T04:31:25.020Z,7.08
2023-04-22T04:33:53.863Z,7.37
2023-04-22T04:36:21.170Z,7.89
2023-04-22T04:38:49.377Z,8.10
2023-04-22T04:41:16.798Z,8.35
2023-04-22T04:43:46.401Z,8.59
2023-04-22T04:46:37.993Z,8.70
2023-04-22T04:49:09.480Z,8.80
2023-04-22T04:51:45.191Z,8.80
2023-04-22T04:54:12.829Z,8.77
2023-04-22T04:56:41.298Z,8.95
2023-04-22T04:59:10.502Z,9.66
2023-04-22T05:01:39.277Z,10.05
2023-04-22T05:04:09.446Z,10.65
2023-04-22T05:06:40.036Z,10.91
2023-04-22T05:09:08.210Z,11.24
2023-04-22T05:11:36.350Z,11.53
2023-04-22T05:14:10.848Z,11.80
2023-04-22T05:16:41.703Z,11.77
2023-04-22T05:19:09.906Z,11.94
2023-04-22T05:21:37.606Z,12.26
2023-04-22T05:24:05.150Z,12.90
2023-04-22T05:26:32.703Z,13.60
2023-04-22T05:29:01.726Z,14.26
2023-04-22T05:31:29.248Z,14.96
2023-04-22T05:33:57.549Z,15.30
2023-04-22T05:36:30.593Z,15.68
2023-04-22T05:38:59.302Z,16.07
2023-04-22T05:41:27.134Z,16.07
2023-04-22T05:43:56.464Z,16.00
2023-04-22T05:46:24.189Z,16.66
2023-04-22T05:48:51.649Z,16.77
2023-04-22T05:51:54.349Z,17.72
2023-04-22T05:54:25.891Z,17.98
2023-04-22T05:56:53.245Z,18.57
2023-04-22T05:59:21.789Z,18.99
2023-04-22T06:01:50.139Z,19.02
2023-04-22T06:04:20.676Z,19.37
2023-04-22T06:06:48.286Z,20.09
2023-04-22T06:09:15.637Z,20.82
2023-04-22T06:11:43.007Z,20.99
2023-04-22T06:14:10.526Z,21.86
2023-04-22T06:16:39.982Z,22.43
2023-04-22T06:19:08.069Z,22.90
2023-04-22T06:21:37.262Z,22.49
2023-04-22T06:24:06.160Z,23.18
2023-04-22T06:26:33.580Z,24.09
2023-04-22T06:29:05.291Z,23.55
2023-04-22T06:31:33.506Z,24.57
2023-04-22T06:34:00.912Z,24.33
2023-04-22T06:36:30.635Z,24.82
2023-04-22T06:39:02.690Z,24.86
2023-04-22T06:41:44.448Z,25.86
2023-04-22T06:44:31.187Z,26.44
2023-04-22T06:47:34.048Z,26.68
2023-04-22T06:50:10.788Z,26.58
2023-04-22T06:52:48.057Z,26.68
2023-04-22T06:55:15.558Z,26.90
2023-04-22T06:57:43.031Z,25.69
2023-04-22T07:00:11.113Z,26.22
2023-04-22T07:02:40.157Z,27.83
2023-04-22T07:05:08.137Z,28.34
2023-04-22T07:07:36.012Z,28.43
2023-04-22T07:10:04.457Z,28.65
2023-04-22T07:12:37.156Z,29.04
2023-04-22T07:15:04.984Z,28.79
2023-04-22T07:17:32.224Z,28.84
2023-04-22T07:19:59.592Z,28.17
2023-04-22T07:22:27.021Z,28.61
2023-04-22T07:24:54.431Z,28.73
2023-04-22T07:27:21.818Z,28.51
2023-04-22T07:29:49.319Z,28.94
2023-04-22T07:32:16.715Z,28.60
2023-04-22T07:34:43.976Z,28.24
2023-04-22T07:37:11.321Z,28.23
2023-04-22T07:39:38.972Z,29.25
2023-04-22T07:42:07.373Z,30.67
2023-04-22T07:44:35.449Z,29.59
2023-04-22T07:47:03.917Z,30.75
2023-04-22T07:49:31.184Z,30.45
2023-04-22T07:51:58.947Z,29.64
2023-04-22T07:54:26.267Z,30.13
2023-04-22T07:56:53.585Z,30.72
2023-04-22T07:59:20.916Z,31.44
2023-04-22T08:01:48.178Z,31.04
2023-04-22T08:04:15.728Z,31.93
2023-04-22T08:06:43.475Z,32.73
2023-04-22T08:09:10.792Z,32.24
2023-04-22T08:11:38.028Z,31.95
2023-04-22T08:14:05.444Z,32.31
2023-04-22T08:16:32.849Z,32.35
2023-04-22T08:19:00.136Z,33.10
2023-04-22T08:21:28.395Z,34.42
2023-04-22T08:23:55.701Z,33.38
2023-04-22T08:26:23.139Z,33.04
2023-04-22T08:28:50.404Z,34.50
2023-04-22T08:31:17.793Z,34.27
2023-04-22T08:33:45.127Z,34.27
2023-04-22T08:36:12.927Z,34.19
2023-04-22T08:38:40.085Z,35.54
2023-04-22T08:41:07.501Z,35.37
2023-04-22T08:43:35.670Z,34.84
2023-04-22T08:46:02.884Z,35.36
2023-04-22T08:48:30.446Z,35.42
2023-04-22T08:50:58.639Z,35.62
2023-04-22T08:53:25.964Z,35.23
2023-04-22T08:55:56.661Z,36.98
2023-04-22T08:58:25.298Z,35.60
2023-04-22T09:00:53.122Z,36.22
2023-04-22T09:03:21.876Z,36.16
2023-04-22T09:05:52.996Z,35.07
2023-04-22T09:08:20.893Z,35.94
2023-04-22T09:10:48.546Z,34.78
2023-04-22T09:13:18.058Z,35.94
2023-04-22T09:15:46.281Z,34.89
2023-04-22T09:18:19.311Z,34.98
2023-04-22T09:20:54.572Z,34.03
2023-04-22T09:23:22.355Z,34.60
2023-04-22T09:25:50.367Z,34.86
2023-04-22T09:28:19.663Z,36.12
2023-04-22T09:30:47.049Z,35.17
2023-04-22T09:33:15.720Z,34.98
2023-04-22T09:35:44.402Z,35.48
2023-04-22T09:38:12.867Z,36.18
2023-04-22T09:40:44.304Z,36.35
2023-04-22T09:43:12.148Z,36.88
2023-04-22T09:45:43.561Z,35.11
2023-04-22T09:48:18.356Z,34.03
2023-04-22T09:50:51.806Z,35.30
2023-04-22T09:53:21.809Z,34.87
2023-04-22T09:55:54.514Z,35.16
2023-04-22T09:58:27.735Z,34.17
2023-04-22T10:00:59.120Z,33.96
2023-04-22T10:03:26.992Z,33.59
2023-04-22T10:05:54.348Z,34.62
2023-04-22T10:08:21.603Z,34.86
2023-04-22T10:10:48.819Z,35.63
2023-04-22T10:13:16.452Z,35.44
2023-04-22T10:15:52.430Z,34.33
2023-04-22T10:18:25.094Z,34.04
2023-04-22T10:20:54.345Z,33.47
2023-04-22T10:23:23.647Z,34.20
2023-04-22T10:25:55.603Z,34.55
2023-04-22T10:28:27.591Z,33.90
2023-04-22T10:30:55.157Z,33.57
2023-04-22T10:33:27.407Z,32.98
2023-04-22T10:36:14.851Z,32.76
2023-04-22T10:39:03.500Z,33.25
2023-04-22T10:41:34.786Z,34.11
2023-04-22T10:44:09.271Z,33.95
2023-04-22T10:46:45.603Z,32.44
2023-04-22T10:49:18.240Z,33.11
2023-04-22T10:51:51.335Z,33.30
2023-04-22T10:54:30.582Z,31.95
2023-04-22T10:57:22.480Z,31.14
2023-04-22T10:59:54.121Z,31.34
2023-04-22T11:02:23.793Z,30.71
2023-04-22T11:04:55.143Z,31.68
2023-04-22T11:07:27.979Z,31.95
2023-04-22T11:10:35.704Z,30.50
2023-04-22T11:13:03.614Z,31.34
2023-04-22T11:15:31.610Z,31.29
2023-04-22T11:17:59.533Z,31.34
2023-04-22T11:20:31.277Z,30.53
2023-04-22T11:22:59.152Z,30.40
2023-04-22T11:25:27.256Z,30.75
2023-04-22T11:27:57.444Z,30.92
2023-04-22T11:30:27.042Z,29.51
2023-04-22T11:32:59.977Z,29.59
2023-04-22T11:35:34.043Z,29.01
2023-04-22T11:38:06.520Z,28.70
2023-04-22T11:40:38.951Z,28.71
2023-04-22T11:43:09.403Z,29.14
2023-04-22T11:45:38.992Z,27.80
2023-04-22T11:48:09.716Z,27.34
2023-04-22T11:50:44.118Z,27.68
2023-04-22T11:53:24.302Z,26.28
2023-04-22T11:55:52.366Z,27.08
2023-04-22T11:58:28.260Z,25.87
2023-04-22T12:00:58.748Z,26.20
2023-04-22T12:03:29.198Z,25.99
2023-04-22T12:06:04.709Z,25.62
2023-04-22T12:08:36.945Z,25.55
2023-04-22T12:11:07.603Z,25.40
2023-04-22T12:13:48.147Z,24.48
2023-04-22T12:16:20.188Z,24.54
2023-04-22T12:18:55.663Z,24.54
2023-04-22T12:21:28.529Z,24.37
2023-04-22T12:24:00.830Z,24.30
2023-04-22T12:26:28.285Z,24.32
2023-04-22T12:29:00.672Z,23.96
2023-04-22T12:31:28.773Z,23.28
2023-04-22T12:33:56.743Z,23.56
2023-04-22T12:36:25.188Z,23.87
2023-04-22T12:38:52.815Z,23.72
2023-04-22T12:41:20.298Z,23.31
2023-04-22T12:43:47.782Z,23.34
2023-04-22T12:46:15.182Z,23.35
2023-04-22T12:48:42.982Z,23.44
2023-04-22T12:51:10.488Z,23.43
2023-04-22T12:53:37.831Z,23.17
2023-04-22T12:56:05.456Z,23.54
2023-04-22T12:58:32.719Z,23.53
2023-04-22T13:00:59.989Z,23.51
2023-04-22T13:03:27.669Z,23.08
2023-04-22T13:05:55.701Z,23.06
2023-04-22T13:08:23.022Z,23.32
2023-04-22T13:10:50.503Z,23.46
2023-04-22T13:13:19.267Z,23.13
2023-04-22T13:15:53.328Z,23.17
2023-04-22T13:18:23.215Z,23.12
2023-04-22T13:20:51.340Z,23.21
2023-04-22T13:23:21.622Z,23.22
2023-04-22T13:25:50.510Z,23.16
2023-04-22T13:28:17.913Z,23.04
2023-04-22T13:30:45.489Z,23.04
2023-04-22T13:33:12.855Z,23.38
2023-04-22T13:35:40.126Z,23.18
2023-04-22T13:38:07.446Z,22.77
2023-04-22T13:40:35.107Z,22.83
2023-04-22T13:43:02.394Z,22.71
2023-04-22T13:45:29.837Z,23.09
2023-04-22T13:47:57.193Z,23.33
2023-04-22T13:50:24.478Z,22.79
2023-04-22T13:52:51.872Z,22.33
2023-04-22T13:55:19.161Z,22.54
2023-04-22T13:57:46.513Z,22.88
2023-04-22T14:00:14.522Z,22.32
2023-04-22T14:02:41.934Z,22.65
2023-04-22T14:05:10.658Z,22.39
2023-04-22T14:07:38.063Z,22.48
2023-04-22T14:10:08.385Z,22.53
2023-04-22T14:12:35.777Z,22.28
2023-04-22T14:15:03.362Z,21.97
2023-04-22T14:17:30.675Z,21.91
2023-04-22T14:19:58.024Z,21.60
2023-04-22T14:22:25.295Z,21.86
2023-04-22T14:24:52.518Z,22.14
2023-04-22T14:27:19.751Z,22.14
2023-04-22T14:29:47.041Z,22.02
2023-04-22T14:32:14.216Z,22.07
2023-04-22T14:34:41.342Z,21.71
2023-04-22T14:37:08.549Z,21.78
2023-04-22T14:39:35.968Z,21.60
2023-04-22T14:42:04.766Z,21.37
2023-04-22T14:44:32.202Z,21.49
2023-04-22T14:46:59.410Z,21.27
2023-04-22T14:49:26.653Z,21.08
2023-04-22T14:51:54.037Z,21.21
2023-04-22T14:54:21.457Z,21.27
2023-04-22T14:56:48.683Z,21.46
2023-04-22T14:59:16.014Z,21.44
2023-04-22T15:01:43.361Z,21.53
2023-04-22T15:04:13.664Z,21.46
2023-04-22T15:06:41.477Z,21.45
2023-04-22T15:09:08.636Z,21.57
2023-04-22T15:11:35.813Z,21.21
2023-04-22T15:14:03.196Z,21.17
2023-04-22T15:16:30.748Z,21.12
2023-04-22T15:18:58.031Z,21.10
2023-04-22T15:21:25.230Z,21.20
2023-04-22T15:23:52.503Z,20.96
2023-04-22T15:26:19.815Z,21.05
2023-04-22T15:28:47.152Z,21.24
2023-04-22T15:31:14.431Z,21.05
2023-04-22T15:33:41.644Z,20.97
2023-04-22T15:36:09.785Z,20.96
2023-04-22T15:38:38.690Z,20.90
2023-04-22T15:41:06.099Z,20.90
2023-04-22T15:43:33.831Z,20.70
2023-04-22T15:46:01.778Z,20.70
2023-04-22T15:48:29.030Z,20.62
2023-04-22T15:50:56.334Z,20.56
2023-04-22T15:53:23.633Z,20.69
2023-04-22T15:55:51.649Z,20.52
2023-04-22T15:58:19.074Z,20.62
2023-04-22T16:00:46.760Z,20.54
2023-04-22T16:03:14.579Z,20.58
2023-04-22T16:05:42.074Z,20.56
2023-04-22T16:08:09.354Z,20.25
2023-04-22T16:10:36.656Z,20.09
2023-04-22T16:13:03.940Z,20.13
2023-04-22T16:15:31.509Z,20.03
2023-04-22T16:17:59.001Z,19.91
2023-04-22T16:20:26.352Z,19.94
2023-04-22T16:22:53.540Z,19.96
2023-04-22T16:25:21.098Z,19.92
2023-04-22T16:27:48.476Z,19.70
2023-04-22T16:30:16.361Z,19.47
2023-04-22T16:32:43.855Z,19.47
2023-04-22T16:35:11.504Z,19.45
2023-04-22T16:37:38.776Z,19.29
2023-04-22T16:40:07.964Z,19.40
2023-04-22T16:42:35.918Z,19.39
2023-04-22T16:45:03.491Z,19.30
2023-04-22T16:47:30.764Z,19.11
2023-04-22T16:49:58.284Z,18.93
2023-04-22T16:52:25.634Z,18.84
2023-04-22T16:54:52.947Z,18.82
2023-04-22T16:57:20.270Z,18.73
2023-04-22T16:59:47.551Z,18.73
2023-04-22T17:02:15.060Z,18.77
2023-04-22T17:04:42.384Z,18.51
2023-04-22T17:07:09.666Z,18.33
2023-04-22T17:09:36.888Z,18.22
2023-04-22T17:12:04.421Z,18.10
2023-04-22T17:14:31.923Z,18.03
2023-04-22T17:16:59.341Z,17.89
2023-04-22T17:19:27.250Z,17.74
2023-04-22T17:21:54.633Z,17.59
2023-04-22T17:24:22.525Z,17.44
2023-04-22T17:26:49.939Z,17.25
2023-04-22T17:29:21.494Z,17.04
2023-04-22T17:31:50.041Z,16.86
2023-04-22T17:34:17.603Z,16.79
2023-04-22T17:36:44.910Z,16.73
2023-04-22T17:39:12.250Z,16.56
2023-04-22T17:41:39.511Z,16.50
2023-04-22T17:44:08.876Z,16.47
2023-04-22T17:46:36.170Z,16.45
2023-04-22T17:49:03.608Z,16.29
2023-04-22T17:51:31.596Z,16.14
2023-04-22T17:54:00.859Z,15.99
2023-04-22T17:56:28.217Z,15.78
2023-04-22T17:58:55.468Z,15.56
2023-04-22T18:01:22.812Z,15.32
2023-04-22T18:03:50.144Z,15.17
2023-04-22T18:06:17.588Z,15.08
2023-04-22T18:08:44.909Z,15.03
2023-04-22T18:11:12.273Z,15.04
2023-04-22T18:13:39.676Z,15.06
2023-04-22T18:16:07.150Z,15.00
2023-04-22T18:18:35.497Z,14.96
2023-04-22T18:21:02.920Z,14.94
2023-04-22T18:23:30.587Z,14.96
2023-04-22T18:25:57.835Z,14.66
2023-04-22T18:28:25.197Z,14.14
2023-04-22T18:30:52.908Z,14.12
2023-04-22T18:33:20.152Z,14.27
2023-04-22T18:35:47.504Z,14.46
2023-04-22T18:38:14.754Z,14.39
2023-04-22T18:40:42.539Z,14.16
2023-04-22T18:43:09.945Z,13.96
2023-04-22T18:45:37.177Z,13.90
2023-04-22T18:48:04.661Z,13.70
2023-04-22T18:50:31.925Z,13.57
2023-04-22T18:52:59.144Z,13.35
2023-04-22T18:55:26.466Z,13.24
2023-04-22T18:57:53.990Z,13.36
2023-04-22T19:00:21.531Z,13.43
2023-04-22T19:02:49.032Z,13.38
2023-04-22T19:05:18.138Z,13.33
2023-04-22T19:07:45.480Z,13.27
2023-04-22T19:10:12.818Z,13.25
2023-04-22T19:12:40.210Z,13.35
2023-04-22T19:15:08.539Z,13.43
2023-04-22T19:17:36.031Z,13.54
2023-04-22T19:20:05.318Z,13.59
2023-04-22T19:22:32.752Z,13.38
2023-04-22T19:25:01.136Z,13.31
2023-04-22T19:27:28.619Z,13.24
2023-04-22T19:29:55.933Z,13.15
2023-04-22T19:32:23.280Z,13.22
2023-04-22T19:34:50.571Z,13.33
2023-04-22T19:37:18.236Z,13.18
2023-04-22T19:39:45.635Z,13.17
2023-04-22T19:42:12.983Z,13.06
2023-04-22T19:45:09.239Z,13.25
2023-04-22T19:47:38.180Z,13.15
2023-04-22T19:50:08.417Z,12.98
2023-04-22T19:52:36.528Z,12.91
2023-04-22T19:55:09.263Z,12.84
2023-04-22T19:57:38.858Z,12.81
2023-04-22T20:00:07.781Z,12.71
2023-04-22T20:03:07.973Z,12.68
2023-04-22T20:05:37.201Z,12.75
2023-04-22T20:08:07.113Z,12.66
2023-04-22T20:10:34.690Z,12.33
2023-04-22T20:13:04.486Z,12.10
2023-04-22T20:15:33.196Z,12.03
2023-04-22T20:18:00.884Z,11.98
2023-04-22T20:20:29.012Z,11.98
2023-04-22T20:23:00.761Z,11.92
2023-04-22T20:25:28.908Z,11.84
2023-04-22T20:27:57.117Z,11.84
2023-04-22T20:30:24.579Z,11.88
2023-04-22T20:32:52.287Z,11.84
2023-04-22T20:35:20.633Z,11.77
2023-04-22T20:37:48.633Z,11.66
2023-04-22T20:40:16.914Z,11.62
2023-04-22T20:42:44.218Z,11.58
2023-04-22T20:45:15.644Z,11.75
2023-04-22T20:47:43.225Z,11.78
2023-04-22T20:50:11.434Z,11.77
2023-04-22T20:52:39.134Z,11.79
2023-04-22T20:55:07.269Z,11.77
2023-04-22T20:57:34.485Z,11.74
2023-04-22T21:00:01.864Z,11.73
2023-04-22T21:02:30.942Z,11.68
2023-04-22T21:04:59.263Z,11.66
2023-04-22T21:07:30.747Z,11.75
2023-04-22T21:09:58.976Z,11.75
2023-04-22T21:12:27.345Z,11.68
2023-04-22T21:14:55.284Z,11.67
2023-04-22T21:17:29.772Z,11.81
2023-04-22T21:19:58.208Z,11.99
2023-04-22T21:22:26.165Z,11.87
2023-04-22T21:24:54.520Z,11.73
2023-04-22T21:27:22.570Z,11.75
2023-04-22T21:29:50.500Z,11.65
2023-04-22T21:32:20.332Z,11.61
2023-04-22T21:34:47.875Z,11.52
2023-04-22T21:37:15.402Z,11.54
2023-04-22T21:39:42.807Z,11.50
2023-04-22T21:42:10.120Z,11.35
2023-04-22T21:44:38.325Z,11.31
2023-04-22T21:47:06.706Z,11.30
2023-04-22T21:49:34.097Z,11.10
2023-04-22T21:52:01.454Z,11.09
2023-04-22T21:54:29.021Z,11.05
2023-04-22T21:56:57.697Z,11.01
2023-04-22T21:59:24.909Z,10.88
2023-04-22T22:01:52.676Z,10.95
2023-04-22T22:04:20.202Z,10.98
2023-04-22T22:06:48.942Z,10.89
2023-04-22T22:09:16.220Z,10.85
2023-04-22T22:11:43.486Z,10.79
2023-04-22T22:14:10.790Z,10.77
2023-04-22T22:16:38.638Z,10.64
2023-04-22T22:19:06.450Z,10.51
2023-04-22T22:21:33.639Z,10.52
2023-04-22T22:24:01.040Z,10.60
2023-04-22T22:26:29.213Z,10.70
2023-04-22T22:28:56.620Z,10.62
2023-04-22T22:31:23.885Z,10.52
2023-04-22T22:33:51.166Z,10.49
2023-04-22T22:36:19.096Z,10.40
2023-04-22T22:38:46.476Z,10.34
2023-04-22T22:41:14.201Z,10.25
2023-04-22T22:43:41.509Z,10.37
2023-04-22T22:46:09.081Z,10.29
2023-04-22T22:48:36.968Z,10.27
2023-04-22T22:51:04.363Z,10.19
2023-04-22T22:53:33.188Z,10.04
2023-04-22T22:56:00.585Z,9.98
2023-04-22T22:58:27.850Z,9.96
2023-04-22T23:00:55.119Z,9.78
2023-04-22T23:03:23.274Z,9.84
2023-04-22T23:05:50.657Z,9.90
2023-04-22T23:08:18.068Z,9.97
2023-04-22T23:10:45.317Z,9.92
2023-04-22T23:13:12.516Z,9.84
2023-04-22T23:15:39.975Z,9.92
2023-04-22T23:18:09.064Z,9.89
2023-04-22T23:20:37.268Z,9.95
2023-04-22T23:23:05.812Z,9.80
2023-04-22T23:25:33.413Z,9.77
2023-04-22T23:28:01.633Z,9.75
2023-04-22T23:30:29.459Z,9.78
2023-04-22T23:33:02.168Z,9.90
2023-04-22T23:35:34.558Z,9.95
2023-04-22T23:38:04.050Z,9.69
2023-04-22T23:40:31.520Z,9.68
2023-04-22T23:42:58.776Z,9.81
2023-04-22T23:45:26.106Z,9.74
2023-04-22T23:47:53.465Z,9.79
2023-04-22T23:50:20.857Z,9.70
2023-04-22T23:52:48.072Z,9.74
2023-04-22T23:55:16.133Z,9.61
2023-04-22T23:57:43.863Z,9.60
